Time;durP1;ratioP1;P1;durP2;ratioP2;P2;SDS_P1;SDS_P2;PMS_P1;PMS_P2;Temp;Humidity;BMP_temperature;BMP_pressure;BME280_temperature;BME280_humidity;BME280_pressure;Samples;Min_cycle;Max_cycle;Signal;HPM_P1;HPM_P2
2022/01/24 00:01:17;;;;;;;12.60;5.80;;;;;;;-4.75;93.40;97471.56;5115119;28;20482;-35
2022/01/24 00:03:44;;;;;;;15.33;6.20;;;;;;;-4.82;93.43;97476.44;5115291;28;20448;-35
2022/01/24 00:06:15;;;;;;;14.93;7.07;;;;;;;-4.82;94.04;97483.34;5115262;28;20842;-37
2022/01/24 00:08:42;;;;;;;8.33;4.20;;;;;;;-4.85;93.98;97493.97;5114693;28;20801;-37
2022/01/24 00:11:14;;;;;;;9.77;6.87;;;;;;;-5.02;93.90;97470.22;5114721;28;20452;-37
2022/01/24 00:16:47;;;;;;;10.63;5.30;;;;;;;-4.94;94.81;97496.34;5114848;28;20410;-38
2022/01/24 00:27:28;;;;;;;13.30;4.90;;;;;;;-5.13;95.55;97509.13;5114596;28;20406;-38
2022/01/24 00:29:55;;;;;;;10.80;6.27;;;;;;;-5.13;95.49;97509.13;5114648;28;20465;-37
2022/01/24 00:32:24;;;;;;;14.00;5.70;;;;;;;-5.16;95.65;97517.13;5114301;28;20807;-38
2022/01/24 00:34:51;;;;;;;7.07;5.20;;;;;;;-5.14;95.50;97517.84;5114601;28;20466;-37
2022/01/24 00:37:18;;;;;;;12.00;7.03;;;;;;;-5.15;95.11;97523.94;5114271;28;20438;-38
2022/01/24 00:39:47;;;;;;;10.77;6.43;;;;;;;-5.16;95.73;97517.13;5114241;28;20951;-37
2022/01/24 00:42:25;;;;;;;14.37;6.07;;;;;;;-5.18;96.01;97529.38;5114029;28;20498;-38
2022/01/24 00:45:04;;;;;;;15.43;6.40;;;;;;;-5.19;96.04;97541.47;5116056;28;20430;-38
2022/01/24 00:47:49;;;;;;;12.10;6.97;;;;;;;-5.22;95.48;97543.50;5114607;28;20540;-37
2022/01/24 00:53:14;;;;;;;10.13;6.50;;;;;;;-5.22;95.22;97551.28;5093746;28;20486;-37
2022/01/24 00:55:42;;;;;;;12.30;6.77;;;;;;;-5.17;94.27;97549.13;5093677;28;20435;-37
2022/01/24 00:58:09;;;;;;;14.97;7.20;;;;;;;-5.19;94.81;97549.25;5093574;28;20443;-37
2022/01/24 01:00:37;;;;;;;16.17;7.20;;;;;;;-5.20;94.31;97560.56;5093665;28;20443;-38
2022/01/24 01:03:06;;;;;;;10.43;6.03;;;;;;;-5.18;93.81;97547.50;5093470;28;20495;-37
2022/01/24 01:05:49;;;;;;;6.90;6.00;;;;;;;-5.13;94.24;97542.78;5094371;28;20443;-37
2022/01/24 01:19:16;;;;;;;21.07;9.00;;;;;;;-5.18;94.75;97542.31;5093548;28;20414;-34
2022/01/24 01:21:44;;;;;;;11.87;7.50;;;;;;;-5.22;95.53;97533.16;5094048;28;20490;-37
2022/01/24 01:24:11;;;;;;;18.40;7.50;;;;;;;-5.23;95.04;97545.25;5093367;28;20439;-35
2022/01/24 01:26:43;;;;;;;27.03;9.27;;;;;;;-5.23;94.22;97541.84;5093306;28;20443;-35
2022/01/24 01:29:16;;;;;;;12.00;8.50;;;;;;;-5.21;93.59;97550.31;5093361;28;20427;-35
2022/01/24 01:31:50;;;;;;;16.93;8.00;;;;;;;-5.25;93.37;97549.75;5093191;28;20492;-35
2022/01/24 01:34:35;;;;;;;14.53;7.27;;;;;;;-5.29;93.08;97537.97;5093279;28;20430;-35
2022/01/24 01:37:24;;;;;;;14.77;7.93;;;;;;;-5.29;93.83;97545.75;5093265;28;20441;-38
2022/01/24 01:56:22;;;;;;;16.20;8.60;;;;;;;-5.49;91.93;97531.72;5111846;28;20426;-35
2022/01/24 01:58:49;;;;;;;28.00;10.03;;;;;;;-5.27;92.13;97567.16;5117329;28;20940;-35
2022/01/24 02:01:17;;;;;;;49.37;20.23;;;;;;;-5.20;92.19;97570.09;5117443;28;20449;-35
2022/01/24 02:03:44;;;;;;;21.10;11.60;;;;;;;-5.14;92.08;97567.03;5117200;28;20442;-34
2022/01/24 02:06:13;;;;;;;23.23;9.13;;;;;;;-5.18;91.93;97574.22;5117077;28;20442;-34
2022/01/24 02:08:41;;;;;;;29.60;19.20;;;;;;;-5.16;91.72;97574.09;5117502;28;20442;-34
2022/01/24 02:11:14;;;;;;;28.77;12.60;;;;;;;-5.14;91.30;97567.03;5117345;28;20450;-35
2022/01/24 02:13:41;;;;;;;35.80;18.00;;;;;;;-5.23;91.77;97573.72;5117344;28;20443;-35
2022/01/24 02:16:16;;;;;;;51.53;20.60;;;;;;;-5.21;91.54;97573.63;5116946;28;20444;-34
2022/01/24 02:18:51;;;;;;;74.07;25.57;;;;;;;-5.20;91.73;97570.09;5116960;28;20783;-36
2022/01/24 02:21:29;;;;;;;30.40;14.27;;;;;;;-5.15;91.48;97570.56;5116957;28;20425;-37
2022/01/24 02:23:59;;;;;;;34.33;14.83;;;;;;;-5.10;91.38;97583.97;5116790;28;20522;-37
2022/01/24 02:26:27;;;;;;;18.67;11.60;;;;;;;-5.09;90.68;97580.44;5116814;28;20427;-36
2022/01/24 02:29:07;;;;;;;27.37;13.17;;;;;;;-5.16;90.64;97568.94;5116940;28;20471;-37
2022/01/24 02:31:42;;;;;;;11.90;7.50;;;;;;;-5.05;91.04;97581.84;5116664;28;20437;-36
2022/01/24 02:34:32;;;;;;;26.33;9.17;;;;;;;-4.97;90.84;97584.69;5116947;28;20779;-37
2022/01/24 02:37:03;;;;;;;17.23;9.13;;;;;;;-4.86;91.19;97576.06;5116912;28;20834;-37
2022/01/24 02:39:57;;;;;;;12.20;8.50;;;;;;;-4.75;90.23;97572.63;5116591;28;20921;-37
2022/01/24 02:53:32;;;;;;;14.57;7.97;;;;;;;-4.42;88.97;97578.66;5116667;28;20405;-37
2022/01/24 02:56:00;;;;;;;20.33;9.83;;;;;;;-4.38;89.17;97574.88;5116256;28;20430;-36
2022/01/24 02:58:27;;;;;;;24.83;12.63;;;;;;;-4.36;88.28;97588.53;5116140;28;20921;-36
2022/01/24 03:00:55;;;;;;;20.00;11.30;;;;;;;-4.51;87.50;97590.59;5115870;28;20452;-37
2022/01/24 03:03:23;;;;;;;23.43;9.40;;;;;;;-4.71;87.67;97596.50;5116180;28;20572;-36
2022/01/24 03:05:50;;;;;;;16.13;9.33;;;;;;;-4.83;88.72;97606.91;5116038;28;20438;-37
2022/01/24 03:08:21;;;;;;;20.37;11.23;;;;;;;-4.84;88.70;97596.66;5115875;28;20442;-37
2022/01/24 03:10:51;;;;;;;18.43;8.67;;;;;;;-4.85;88.60;97602.78;5115947;28;20432;-38
2022/01/24 03:13:32;;;;;;;26.87;11.73;;;;;;;-4.83;88.01;97632.00;5115838;28;20426;-37
2022/01/24 03:16:02;;;;;;;63.20;24.27;;;;;;;-4.91;86.27;97624.00;5116186;28;20483;-37
2022/01/24 03:18:29;;;;;;;58.37;19.07;;;;;;;-5.08;87.17;97625.28;5115662;28;20446;-37
2022/01/24 03:20:57;;;;;;;35.27;15.10;;;;;;;-5.22;87.30;97613.41;5115656;28;20947;-37
2022/01/24 03:23:25;;;;;;;28.37;12.83;;;;;;;-5.36;88.36;97612.66;5115839;28;20516;-38
2022/01/24 03:25:54;;;;;;;23.70;8.73;;;;;;;-5.27;88.79;97629.31;5115910;28;20442;-37
2022/01/24 03:28:22;;;;;;;13.33;8.67;;;;;;;-5.29;88.96;97619.97;5115843;28;20442;-37
2022/01/24 03:30:49;;;;;;;20.30;11.10;;;;;;;-5.48;89.40;97584.34;5115779;28;20546;-37
2022/01/24 03:33:17;;;;;;;20.30;9.07;;;;;;;-5.57;89.24;97602.19;5115435;28;20442;-37
2022/01/24 03:35:45;;;;;;;19.53;10.27;;;;;;;-5.46;89.42;97623.84;5115688;28;20869;-38
2022/01/24 03:38:14;;;;;;;17.17;9.07;;;;;;;-5.52;89.11;97634.69;5115374;28;20442;-37
2022/01/24 03:40:41;;;;;;;20.73;10.20;;;;;;;-5.62;89.37;97640.53;5115551;28;20434;-37
2022/01/24 03:43:10;;;;;;;24.60;11.20;;;;;;;-5.63;89.94;97644.06;5115192;28;20485;-37
2022/01/24 03:45:42;;;;;;;12.20;7.60;;;;;;;-5.80;90.00;97634.13;5115590;28;20450;-37
2022/01/24 03:48:12;;;;;;;16.60;10.63;;;;;;;-5.76;90.72;97651.91;5115104;28;20485;-37
2022/01/24 03:50:40;;;;;;;23.17;11.33;;;;;;;-5.73;90.30;97656.03;5115191;28;20952;-36
2022/01/24 03:53:07;;;;;;;17.83;9.87;;;;;;;-5.87;91.20;97636.34;5114987;28;20442;-38
2022/01/24 03:55:35;;;;;;;15.83;7.60;;;;;;;-5.80;91.60;97647.88;5115295;28;20504;-37
2022/01/24 03:58:02;;;;;;;17.93;9.37;;;;;;;-5.83;91.12;97661.06;5114910;28;20438;-37
2022/01/24 04:00:31;;;;;;;30.50;11.70;;;;;;;-5.80;91.00;97652.25;5114970;28;20929;-37
2022/01/24 04:02:59;;;;;;;21.03;10.03;;;;;;;-5.76;89.56;97664.84;5115118;28;20842;-36
2022/01/24 04:05:26;;;;;;;16.30;10.80;;;;;;;-5.80;88.71;97667.78;5114779;28;20449;-37
2022/01/24 04:07:53;;;;;;;104.53;36.63;;;;;;;-5.89;88.47;97669.25;5114791;28;20441;-38
2022/01/24 04:10:21;;;;;;;29.73;13.77;;;;;;;-5.82;88.46;97683.38;5114703;28;20446;-38
2022/01/24 04:12:51;;;;;;;13.10;8.27;;;;;;;-5.82;87.83;97680.00;5114167;28;20994;-37
2022/01/24 04:15:43;;;;;;;16.00;9.17;;;;;;;-5.89;87.80;97674.44;5114879;28;20453;-37
2022/01/24 04:18:31;;;;;;;24.83;11.87;;;;;;;-5.93;87.91;97683.34;5114615;28;20442;-34
2022/01/24 04:23:55;;;;;;;19.33;9.97;;;;;;;-5.93;87.90;97693.69;5098414;28;20482;-37
2022/01/24 04:26:22;;;;;;;24.50;9.80;;;;;;;-5.97;88.03;97702.66;5114484;28;20430;-36
2022/01/24 04:28:49;;;;;;;21.97;9.13;;;;;;;-5.99;88.30;97700.16;5114650;28;20798;-35
2022/01/24 04:31:18;;;;;;;18.43;9.30;;;;;;;-5.99;88.04;97714.84;5114667;28;20521;-34
2022/01/24 04:33:47;;;;;;;18.93;9.83;;;;;;;-6.07;88.06;97712.00;5114506;28;20448;-35
2022/01/24 04:36:15;;;;;;;25.00;11.40;;;;;;;-6.02;88.63;97715.09;5114642;28;20441;-37
2022/01/24 04:38:42;;;;;;;23.47;10.47;;;;;;;-5.99;89.44;97709.69;5114518;28;20830;-35
2022/01/24 04:41:17;;;;;;;26.93;12.50;;;;;;;-6.02;90.42;97735.78;5114714;28;20438;-37
2022/01/24 04:44:00;;;;;;;14.90;8.97;;;;;;;-6.08;91.07;97731.03;5114308;28;20473;-38
2022/01/24 04:52:13;;;;;;;15.73;8.13;;;;;;;-6.19;91.55;97740.38;5114460;28;20777;-38
2022/01/24 04:54:42;;;;;;;20.50;10.87;;;;;;;-6.18;91.50;97747.19;5114244;28;20431;-38
2022/01/24 04:57:11;;;;;;;22.07;9.67;;;;;;;-6.24;92.03;97757.97;5114667;28;20438;-38
2022/01/24 04:59:40;;;;;;;31.07;13.67;;;;;;;-6.32;92.29;97755.09;5114239;28;20453;-37
2022/01/24 05:02:08;;;;;;;21.83;8.73;;;;;;;-6.26;92.73;97752.09;5113804;28;20446;-37
2022/01/24 05:04:37;;;;;;;32.13;16.20;;;;;;;-6.25;92.97;97751.16;5113857;28;20460;-35
2022/01/24 05:07:05;;;;;;;23.17;12.03;;;;;;;-6.30;93.48;97758.41;5114188;28;20785;-37
2022/01/24 05:09:39;;;;;;;15.83;10.40;;;;;;;-6.25;93.81;97764.06;5114044;28;20442;-35
2022/01/24 05:12:14;;;;;;;16.27;8.43;;;;;;;-6.25;94.26;97766.66;5113852;28;20778;-35
2022/01/24 05:25:48;;;;;;;30.03;12.20;;;;;;;-6.41;96.06;97781.56;5116498;28;20425;-37
2022/01/24 05:28:16;;;;;;;13.97;9.20;;;;;;;-6.39;94.74;97792.63;5118223;28;20474;-36
2022/01/24 05:30:43;;;;;;;21.30;11.60;;;;;;;-6.41;93.94;97791.91;5117779;28;20929;-37
2022/01/24 05:33:10;;;;;;;21.80;10.03;;;;;;;-6.44;92.42;97799.88;5117793;28;20448;-37
2022/01/24 05:35:39;;;;;;;26.13;12.63;;;;;;;-6.45;92.28;97800.81;5118056;28;20464;-36
2022/01/24 05:38:07;;;;;;;32.30;15.73;;;;;;;-6.46;92.69;97799.97;5117609;28;20438;-37
2022/01/24 05:40:35;;;;;;;29.67;11.33;;;;;;;-6.44;91.96;97808.44;5117592;28;20437;-36
2022/01/24 05:43:02;;;;;;;28.50;12.50;;;;;;;-6.44;92.65;97802.47;5117456;28;20958;-36
2022/01/24 05:45:29;;;;;;;37.33;19.27;;;;;;;-6.42;92.18;97805.78;5117593;28;20445;-36
2022/01/24 05:47:56;;;;;;;29.10;14.77;;;;;;;-6.44;91.93;97805.03;5117419;28;20917;-37
2022/01/24 05:50:23;;;;;;;21.60;9.90;;;;;;;-6.54;92.27;97811.75;5117514;28;20426;-36
2022/01/24 05:52:52;;;;;;;27.30;13.43;;;;;;;-6.59;92.35;97815.50;5117654;28;20789;-36
2022/01/24 05:55:19;;;;;;;34.50;17.97;;;;;;;-6.64;92.43;97820.16;5117431;28;20964;-35
2022/01/24 05:57:47;;;;;;;32.53;13.70;;;;;;;-6.60;92.96;97818.19;5117313;28;20814;-36
2022/01/24 06:00:16;;;;;;;34.50;14.97;;;;;;;-6.59;93.25;97835.34;5117214;28;20444;-36
2022/01/24 06:02:43;;;;;;;48.77;28.37;;;;;;;-6.66;94.04;97823.78;5117156;28;20836;-37
2022/01/24 06:05:11;;;;;;;24.60;11.60;;;;;;;-6.53;93.12;97828.94;5117203;28;20449;-36
2022/01/24 06:07:38;;;;;;;31.77;14.80;;;;;;;-6.55;92.37;97830.81;5117026;28;20445;-35
2022/01/24 06:10:08;;;;;;;22.13;12.47;;;;;;;-6.51;92.43;97837.41;5117343;28;20441;-37
2022/01/24 06:12:35;;;;;;;23.37;13.93;;;;;;;-6.53;90.99;97847.84;5116946;28;20452;-36
2022/01/24 06:15:02;;;;;;;28.40;11.33;;;;;;;-6.56;91.22;97836.88;5116911;28;20964;-37
2022/01/24 06:17:29;;;;;;;31.93;13.90;;;;;;;-6.49;91.27;97861.41;5117218;28;20437;-36
2022/01/24 06:19:57;;;;;;;31.03;15.13;;;;;;;-6.47;91.53;97860.34;5117091;28;20446;-35
2022/01/24 06:22:24;;;;;;;28.67;13.53;;;;;;;-6.46;91.36;97861.19;5117214;28;20442;-35
2022/01/24 06:24:51;;;;;;;19.97;9.37;;;;;;;-6.64;91.47;97842.59;5117278;28;20794;-35
2022/01/24 06:27:20;;;;;;;28.30;12.23;;;;;;;-6.43;91.70;97876.47;5116889;28;20959;-36
2022/01/24 06:29:47;;;;;;;29.50;11.13;;;;;;;-6.43;91.69;97866.13;5117075;28;20454;-37
2022/01/24 06:32:14;;;;;;;28.00;12.93;;;;;;;-6.35;92.23;97869.03;5116826;28;20834;-37
2022/01/24 06:34:42;;;;;;;35.63;13.83;;;;;;;-6.31;92.08;97874.81;5116601;28;21000;-38
2022/01/24 06:37:09;;;;;;;34.60;15.27;;;;;;;-6.27;92.07;97873.69;5115977;28;20517;-36
2022/01/24 06:39:36;;;;;;;36.17;16.40;;;;;;;-6.21;92.61;97881.84;5116404;28;20529;-35
2022/01/24 06:42:12;;;;;;;20.97;9.97;;;;;;;-6.16;92.90;97883.28;5116384;28;20442;-37
2022/01/24 06:44:42;;;;;;;130.10;47.07;;;;;;;-6.06;93.21;97886.91;5116344;28;20486;-36
2022/01/24 06:47:09;;;;;;;40.40;20.17;;;;;;;-6.01;93.54;97884.81;5116340;28;20487;-36
2022/01/24 06:49:37;;;;;;;38.33;12.60;;;;;;;-5.84;93.52;97884.44;5116519;28;20473;-35
2022/01/24 06:52:06;;;;;;;26.07;12.17;;;;;;;-5.70;93.49;97885.22;5116235;28;20446;-35
2022/01/24 06:54:34;;;;;;;22.67;9.73;;;;;;;-5.63;93.14;97881.31;5116591;28;20473;-35
2022/01/24 06:57:01;;;;;;;27.37;12.07;;;;;;;-5.44;93.00;97896.31;5116493;28;20537;-35
2022/01/24 06:59:29;;;;;;;32.03;13.03;;;;;;;-5.29;93.02;97902.19;5116224;28;20442;-36
2022/01/24 07:01:57;;;;;;;44.53;15.90;;;;;;;-5.14;92.94;97898.50;5116002;28;20442;-36
2022/01/24 07:04:25;;;;;;;37.47;14.47;;;;;;;-5.04;92.30;97904.66;5116261;28;20996;-37
2022/01/24 07:06:52;;;;;;;19.30;12.87;;;;;;;-4.95;92.03;97892.78;5115984;28;20450;-37
2022/01/24 07:09:19;;;;;;;26.03;14.20;;;;;;;-4.85;91.53;97903.31;5116263;28;20914;-35
2022/01/24 07:11:48;;;;;;;34.20;14.70;;;;;;;-4.76;91.20;97897.47;5115896;28;20529;-36
2022/01/24 07:14:15;;;;;;;27.77;13.57;;;;;;;-4.72;90.02;97892.88;5115851;28;20515;-36
2022/01/24 07:19:34;;;;;;;39.13;16.73;;;;;;;-4.88;88.26;97900.94;5099743;28;20791;-37
2022/01/24 07:22:04;;;;;;;26.97;11.93;;;;;;;-5.07;86.49;97888.53;5116886;28;20477;-37
2022/01/24 07:24:32;;;;;;;30.73;11.87;;;;;;;-5.08;86.34;97903.22;5115666;28;20996;-38
2022/01/24 07:27:00;;;;;;;15.93;10.00;;;;;;;-5.08;86.07;97907.59;5115594;28;20452;-37
2022/01/24 07:29:28;;;;;;;21.60;9.57;;;;;;;-5.18;86.05;97910.03;5115730;28;20952;-36
2022/01/24 07:31:55;;;;;;;24.57;12.83;;;;;;;-5.20;85.63;97919.66;5115801;28;20453;-38
2022/01/24 07:34:22;;;;;;;31.17;15.10;;;;;;;-5.17;85.99;97922.03;5115524;28;20940;-37
2022/01/24 07:36:51;;;;;;;28.83;12.43;;;;;;;-5.23;85.96;97919.88;5115575;28;20450;-37
2022/01/24 07:39:19;;;;;;;24.47;13.17;;;;;;;-5.26;86.15;97935.63;5115645;28;20508;-37
2022/01/24 07:41:47;;;;;;;23.17;10.33;;;;;;;-5.31;86.18;97933.38;5115195;28;20448;-34
2022/01/24 07:44:15;;;;;;;28.23;12.13;;;;;;;-5.25;86.58;97929.50;5115429;28;20481;-37
2022/01/24 07:46:43;;;;;;;12.97;7.67;;;;;;;-5.31;86.97;97942.88;5114949;28;20909;-37
2022/01/24 07:49:12;;;;;;;23.40;11.80;;;;;;;-5.39;87.56;97940.84;5114316;28;20981;-36
2022/01/24 07:51:43;;;;;;;42.13;23.53;;;;;;;-5.31;88.27;97937.72;5115058;28;20446;-37
2022/01/24 07:54:12;;;;;;;35.90;23.00;;;;;;;-5.44;87.95;97922.22;5115051;28;20445;-37
2022/01/24 07:56:40;;;;;;;54.07;30.20;;;;;;;-5.30;88.03;97929.84;5114985;28;20442;-37
2022/01/24 07:59:07;;;;;;;31.07;15.03;;;;;;;-5.29;87.15;97931.50;5115317;28;20449;-36
2022/01/24 08:01:34;;;;;;;39.53;17.60;;;;;;;-5.37;86.63;97913.91;5115181;28;20952;-36
2022/01/24 08:04:02;;;;;;;48.70;21.47;;;;;;;-5.22;86.50;97937.06;5114685;28;20486;-36
2022/01/24 08:06:29;;;;;;;36.77;14.10;;;;;;;-5.17;86.02;97940.16;5114736;28;20438;-37
2022/01/24 08:08:56;;;;;;;24.83;14.37;;;;;;;-5.03;85.32;97941.78;5115154;28;20811;-37
2022/01/24 08:11:25;;;;;;;71.03;28.03;;;;;;;-5.02;85.16;97941.63;5114639;28;20449;-35
2022/01/24 08:13:54;;;;;;;23.70;10.70;;;;;;;-4.94;84.91;97941.91;5114638;28;20442;-35
2022/01/24 08:16:22;;;;;;;34.07;18.47;;;;;;;-4.96;84.56;97940.38;5114583;28;21030;-36
2022/01/24 08:18:51;;;;;;;33.57;16.13;;;;;;;-4.94;84.09;97934.16;5114572;28;20453;-37
2022/01/24 08:21:19;;;;;;;36.43;12.30;;;;;;;-4.82;82.55;97945.41;5114450;28;20843;-37
2022/01/24 08:23:46;;;;;;;27.13;14.40;;;;;;;-4.67;82.84;97948.59;5114320;28;20490;-37
2022/01/24 08:26:13;;;;;;;24.83;12.80;;;;;;;-4.68;82.61;97956.53;5114389;28;20802;-37
2022/01/24 08:28:42;;;;;;;26.43;12.73;;;;;;;-4.65;82.73;97956.28;5114467;28;20525;-36
2022/01/24 08:31:10;;;;;;;17.37;11.67;;;;;;;-4.61;82.46;97963.72;5114598;28;20442;-36
2022/01/24 08:33:37;;;;;;;39.60;22.00;;;;;;;-4.64;82.64;97969.13;5114196;28;20446;-37
2022/01/24 08:36:05;;;;;;;42.70;15.30;;;;;;;-4.61;82.08;97978.44;5114489;28;20833;-36
2022/01/24 08:38:35;;;;;;;29.03;14.57;;;;;;;-4.83;82.24;97950.69;5114553;28;20450;-38
2022/01/24 08:41:08;;;;;;;39.53;17.37;;;;;;;-4.66;83.78;97981.38;5114089;28;20454;-37
2022/01/24 08:43:50;;;;;;;29.47;12.40;;;;;;;-4.59;83.39;97987.75;5115089;28;20497;-38
2022/01/24 08:46:20;;;;;;;20.70;11.47;;;;;;;-4.77;82.40;97969.19;5114451;28;20906;-38
2022/01/24 08:48:47;;;;;;;25.00;12.47;;;;;;;-4.56;83.41;97979.78;5113857;28;20470;-38
2022/01/24 08:51:15;;;;;;;29.17;13.97;;;;;;;-4.59;83.50;97992.13;5114533;28;20442;-37
2022/01/24 08:53:43;;;;;;;22.80;10.93;;;;;;;-4.65;82.64;97988.19;5114021;28;20473;-38
2022/01/24 08:56:11;;;;;;;30.37;12.93;;;;;;;-4.64;83.25;97989.06;5113962;28;20442;-37
2022/01/24 08:58:39;;;;;;;30.07;17.23;;;;;;;-4.85;83.61;97971.50;5115209;28;20446;-38
2022/01/24 09:01:06;;;;;;;28.10;12.57;;;;;;;-4.55;83.28;97983.19;5114480;28;20446;-36
2022/01/24 09:03:39;;;;;;;27.27;11.70;;;;;;;-4.48;83.39;97983.56;5114161;28;20807;-35
2022/01/24 09:06:07;;;;;;;28.30;13.40;;;;;;;-4.35;83.69;97994.69;5113949;28;20430;-37
2022/01/24 09:08:35;;;;;;;13.13;8.87;;;;;;;-4.43;82.68;97981.44;5114520;28;20534;-36
2022/01/24 09:11:03;;;;;;;27.33;9.63;;;;;;;-4.27;82.72;97994.13;5114220;28;20446;-37
2022/01/24 09:13:32;;;;;;;22.57;12.57;;;;;;;-4.45;82.24;97967.75;5114197;28;20524;-38
2022/01/24 09:16:03;;;;;;;19.20;10.37;;;;;;;-4.28;82.60;97993.31;5114073;28;20973;-37
2022/01/24 09:18:30;;;;;;;15.90;10.90;;;;;;;-4.38;82.36;98007.88;5114165;28;20446;-37
2022/01/24 09:20:59;;;;;;;21.17;10.57;;;;;;;-4.53;82.78;98005.47;5114072;28;20471;-37
2022/01/24 09:23:26;;;;;;;25.13;14.20;;;;;;;-4.59;84.92;98008.50;5113931;28;20465;-37
2022/01/24 09:25:53;;;;;;;18.07;9.83;;;;;;;-4.58;85.20;98014.50;5113709;28;20925;-38
2022/01/24 09:28:21;;;;;;;20.87;11.57;;;;;;;-4.69;84.50;98009.28;5114145;28;20438;-37
2022/01/24 09:30:48;;;;;;;20.03;12.17;;;;;;;-4.81;85.58;97982.50;5113638;28;20791;-37
2022/01/24 09:33:16;;;;;;;23.57;10.80;;;;;;;-4.79;85.05;97983.22;5114038;28;20468;-36
2022/01/24 09:35:44;;;;;;;25.07;11.30;;;;;;;-4.68;83.96;98004.00;5113418;28;20438;-37
2022/01/24 09:38:13;;;;;;;24.80;14.00;;;;;;;-4.51;83.34;97994.16;5113746;28;21043;-37
2022/01/24 09:40:41;;;;;;;36.97;15.30;;;;;;;-4.34;83.05;97991.16;5113499;28;20445;-38
2022/01/24 09:43:08;;;;;;;17.97;9.53;;;;;;;-4.19;81.63;97996.97;5113560;28;20517;-38
2022/01/24 09:45:36;;;;;;;20.87;11.33;;;;;;;-4.15;80.80;97995.78;5113379;28;21015;-38
2022/01/24 09:48:04;;;;;;;27.90;12.57;;;;;;;-4.13;80.75;97999.09;5113571;28;20499;-37
2022/01/24 09:50:32;;;;;;;32.50;13.57;;;;;;;-3.92;80.47;97996.66;5114350;28;20782;-37
2022/01/24 09:53:01;;;;;;;26.57;11.63;;;;;;;-3.95;78.84;97965.78;5113281;28;20444;-37
2022/01/24 09:55:30;;;;;;;16.60;8.50;;;;;;;-3.52;77.47;98004.84;5113477;28;20441;-37
2022/01/24 09:57:57;;;;;;;14.83;8.10;;;;;;;-3.48;77.57;98000.25;5113568;28;20446;-36
2022/01/24 10:00:29;;;;;;;25.13;10.77;;;;;;;-3.53;78.11;98008.41;5113379;28;20442;-37
2022/01/24 10:02:57;;;;;;;31.97;16.87;;;;;;;-3.68;78.40;98008.72;5113245;28;20479;-37
2022/01/24 10:05:27;;;;;;;29.00;15.70;;;;;;;-3.62;78.47;98013.44;5113196;28;21012;-35
2022/01/24 10:07:56;;;;;;;59.53;24.13;;;;;;;-3.63;79.54;98002.25;5113298;28;20426;-37
2022/01/24 10:10:33;;;;;;;28.17;15.40;;;;;;;-3.41;79.41;98006.59;5113652;28;20437;-38
2022/01/24 10:16:29;;;;;;;17.90;9.73;;;;;;;-3.33;78.44;98001.66;5117177;28;20494;-37
2022/01/24 10:19:07;;;;;;;14.00;8.37;;;;;;;-3.53;77.86;98005.78;5117234;28;20426;-36
2022/01/24 10:21:39;;;;;;;27.03;14.50;;;;;;;-3.68;78.50;97998.34;5116878;28;20437;-35
2022/01/24 10:24:07;;;;;;;18.70;10.20;;;;;;;-3.83;78.75;97995.13;5116661;28;20507;-37
2022/01/24 10:26:37;;;;;;;15.50;9.90;;;;;;;-3.93;78.14;97997.63;5116709;28;20939;-36
2022/01/24 10:29:12;;;;;;;17.47;10.73;;;;;;;-3.93;78.21;97997.63;5117102;28;20426;-37
2022/01/24 10:31:48;;;;;;;27.87;12.17;;;;;;;-3.84;77.25;98003.88;5117054;28;20434;-36
2022/01/24 10:34:27;;;;;;;24.43;12.67;;;;;;;-3.92;75.69;98004.44;5116689;28;20430;-37
2022/01/24 10:36:55;;;;;;;32.70;13.80;;;;;;;-3.93;75.54;98000.22;5116558;28;20426;-37
2022/01/24 10:39:31;;;;;;;42.37;14.53;;;;;;;-3.87;74.47;97994.56;5116506;28;20449;-37
2022/01/24 10:45:13;;;;;;;20.50;12.67;;;;;;;-3.44;74.54;97985.22;5081663;28;20580;-35
2022/01/24 10:47:45;;;;;;;20.37;8.83;;;;;;;-3.54;75.28;97990.31;5116563;28;20433;-38
2022/01/24 10:50:19;;;;;;;29.70;13.27;;;;;;;-3.58;75.88;97999.28;5116320;28;20835;-38
2022/01/24 10:52:46;;;;;;;19.60;12.87;;;;;;;-3.68;76.59;97993.16;5116658;28;20494;-38
2022/01/24 10:55:16;;;;;;;24.63;13.23;;;;;;;-3.74;76.38;97982.31;5116520;28;20446;-37
2022/01/24 10:57:46;;;;;;;25.10;11.63;;;;;;;-3.75;77.80;97979.81;5116652;28;20791;-39
2022/01/24 11:00:16;;;;;;;21.10;9.90;;;;;;;-3.53;77.23;97991.97;5116725;28;20433;-34
2022/01/24 11:02:46;;;;;;;20.60;14.23;;;;;;;-3.52;77.32;98004.84;5116099;28;20918;-35
2022/01/24 11:05:17;;;;;;;27.87;10.30;;;;;;;-3.40;74.99;97997.88;5115935;28;20493;-36
2022/01/24 11:07:52;;;;;;;22.37;8.90;;;;;;;-3.41;75.40;98001.41;5116011;28;20434;-36
2022/01/24 11:10:20;;;;;;;20.30;8.87;;;;;;;-3.58;75.15;97979.34;5116300;28;20448;-38
2022/01/24 11:12:49;;;;;;;18.47;8.50;;;;;;;-3.48;74.25;97989.84;5115874;28;20449;-35
2022/01/24 11:15:16;;;;;;;15.80;7.83;;;;;;;-3.54;73.71;97972.16;5115817;28;20442;-34
2022/01/24 11:17:44;;;;;;;16.40;8.60;;;;;;;-3.43;72.59;97990.31;5116143;28;20442;-35
2022/01/24 11:20:16;;;;;;;26.63;11.50;;;;;;;-3.24;72.02;97997.50;5115822;28;20895;-37
2022/01/24 11:22:46;;;;;;;35.20;17.97;;;;;;;-3.04;72.09;97992.50;5115877;28;20986;-34
2022/01/24 11:25:15;;;;;;;22.03;14.77;;;;;;;-2.75;72.25;97998.81;5115642;28;20470;-35
2022/01/24 11:27:44;;;;;;;55.50;22.50;;;;;;;-2.52;72.10;97999.56;5115610;28;20446;-35
2022/01/24 11:30:15;;;;;;;20.60;11.00;;;;;;;-2.43;70.51;98008.41;5115937;28;20805;-35
2022/01/24 11:32:49;;;;;;;24.90;11.90;;;;;;;-2.62;69.86;97997.84;5115526;28;20936;-35
2022/01/24 11:35:31;;;;;;;33.03;15.17;;;;;;;-2.54;71.30;97992.81;5115764;28;20429;-37
2022/01/24 11:37:59;;;;;;;18.27;8.87;;;;;;;-2.51;69.63;97985.59;5115136;28;20446;-35
2022/01/24 11:40:27;;;;;;;25.67;13.50;;;;;;;-2.30;69.89;98014.25;5115399;28;20456;-37
2022/01/24 11:42:54;;;;;;;26.27;11.03;;;;;;;-2.45;70.45;98002.50;5115768;28;20800;-37
2022/01/24 11:45:45;;;;;;;25.77;10.13;;;;;;;-2.53;72.46;98008.31;5115521;28;20489;-34
2022/01/24 11:48:18;;;;;;;14.90;8.87;;;;;;;-2.72;73.32;98008.16;5115085;28;20561;-36
2022/01/24 11:50:57;;;;;;;17.20;8.90;;;;;;;-2.79;74.51;98007.00;5115372;28;20927;-36
2022/01/24 11:53:27;;;;;;;22.23;7.87;;;;;;;-2.81;74.06;98006.28;5116115;28;20426;-35
2022/01/24 11:55:56;;;;;;;53.43;15.97;;;;;;;-2.75;75.14;98000.59;5115117;28;20437;-35
2022/01/24 11:58:26;;;;;;;27.00;11.60;;;;;;;-2.80;75.46;97997.53;5115372;28;20434;-34
2022/01/24 12:00:57;;;;;;;19.20;11.10;;;;;;;-2.90;75.86;98000.88;5115082;28;20431;-35
2022/01/24 12:03:27;;;;;;;19.07;10.73;;;;;;;-2.95;76.37;97997.78;5114984;28;20437;-36
2022/01/24 12:05:56;;;;;;;16.80;9.87;;;;;;;-3.19;76.79;97994.53;5115123;28;20485;-38
2022/01/24 12:08:31;;;;;;;20.10;9.73;;;;;;;-3.37;75.61;98008.03;5114800;28;20445;-36
2022/01/24 12:11:13;;;;;;;15.73;7.47;;;;;;;-3.48;76.42;98002.84;5115134;28;20442;-35
2022/01/24 12:13:46;;;;;;;16.27;10.93;;;;;;;-3.61;77.22;98004.72;5115240;28;20491;-37
2022/01/24 12:16:16;;;;;;;25.73;11.13;;;;;;;-3.71;77.93;98004.59;5115310;28;20446;-34
2022/01/24 12:18:58;;;;;;;18.13;9.93;;;;;;;-3.65;78.35;97995.53;5114745;28;20433;-34
2022/01/24 12:21:27;;;;;;;21.60;10.77;;;;;;;-3.52;78.79;97999.66;5114644;28;20434;-35
2022/01/24 12:23:57;;;;;;;28.83;11.73;;;;;;;-3.61;77.88;97969.22;5114883;28;20444;-34
2022/01/24 12:26:32;;;;;;;28.43;13.90;;;;;;;-3.22;77.90;98006.00;5114406;28;20486;-34
2022/01/24 12:29:03;;;;;;;24.40;13.00;;;;;;;-3.19;77.02;98015.31;5114454;28;20426;-34
2022/01/24 12:31:44;;;;;;;30.17;12.00;;;;;;;-3.18;75.94;98017.00;5115005;28;20426;-36
2022/01/24 12:34:15;;;;;;;17.10;10.47;;;;;;;-3.25;74.28;98010.59;5114207;28;20449;-36
2022/01/24 12:36:59;;;;;;;15.70;8.43;;;;;;;-3.21;73.34;98012.84;5114666;28;20426;-36
2022/01/24 12:39:32;;;;;;;34.43;14.50;;;;;;;-3.01;73.25;98011.31;5114367;28;20460;-37
2022/01/24 12:42:03;;;;;;;27.03;11.10;;;;;;;-2.78;73.47;98021.63;5114595;28;20758;-36
2022/01/24 12:47:19;;;;;;;20.40;9.37;;;;;;;-3.01;72.85;98024.28;5114905;28;20406;-35
2022/01/24 12:49:49;;;;;;;28.33;9.40;;;;;;;-3.12;72.90;98024.28;5114221;28;20473;-36
2022/01/24 12:52:19;;;;;;;16.37;11.10;;;;;;;-3.02;72.53;98035.63;5114150;28;20422;-36
2022/01/24 12:54:50;;;;;;;39.47;14.67;;;;;;;-3.06;71.34;98026.41;5114066;28;20449;-36
2022/01/24 12:57:20;;;;;;;22.10;9.83;;;;;;;-2.90;71.37;98031.25;5114102;28;20436;-37